sensor_id;sensor_type;location;lat;lon;timestamp;pressure;altitude;pressure_sealevel;temperature;humidity
41044;BME280;51680;49.806;18.774;2022-11-21T00:01:55;96657.75;;;4.67;75.93
41044;BME280;51680;49.806;18.774;2022-11-21T00:04:57;96653.59;;;4.64;75.96
41044;BME280;51680;49.806;18.774;2022-11-21T00:07:59;96650.25;;;4.62;76.53
41044;BME280;51680;49.806;18.774;2022-11-21T00:11:00;96663.34;;;4.59;76.74
41044;BME280;51680;49.806;18.774;2022-11-21T00:14:02;96657.28;;;4.60;76.72
41044;BME280;51680;49.806;18.774;2022-11-21T00:17:05;96660.16;;;4.54;76.97
41044;BME280;51680;49.806;18.774;2022-11-21T00:20:08;96645.97;;;4.46;76.85
41044;BME280;51680;49.806;18.774;2022-11-21T00:23:10;96640.06;;;4.44;77.10
41044;BME280;51680;49.806;18.774;2022-11-21T00:26:13;96634.38;;;4.37;77.24
41044;BME280;51680;49.806;18.774;2022-11-21T00:29:15;96627.84;;;4.30;77.66
41044;BME280;51680;49.806;18.774;2022-11-21T00:32:18;96629.59;;;4.30;77.50
41044;BME280;51680;49.806;18.774;2022-11-21T00:35:20;96629.69;;;4.28;77.60
41044;BME280;51680;49.806;18.774;2022-11-21T00:38:22;96620.09;;;4.30;77.34
41044;BME280;51680;49.806;18.774;2022-11-21T00:41:24;96619.34;;;4.28;77.50
41044;BME280;51680;49.806;18.774;2022-11-21T00:44:26;96625.50;;;4.26;77.19
41044;BME280;51680;49.806;18.774;2022-11-21T00:47:29;96620.56;;;4.21;77.28
41044;BME280;51680;49.806;18.774;2022-11-21T00:50:31;96619.06;;;4.17;77.64
41044;BME280;51680;49.806;18.774;2022-11-21T00:53:51;96621.81;;;4.14;77.53
41044;BME280;51680;49.806;18.774;2022-11-21T00:56:53;96620.22;;;4.12;77.78
41044;BME280;51680;49.806;18.774;2022-11-21T00:59:55;96614.97;;;4.13;77.65
41044;BME280;51680;49.806;18.774;2022-11-21T01:02:58;96611.63;;;4.11;78.05
41044;BME280;51680;49.806;18.774;2022-11-21T01:06:01;96620.28;;;4.10;77.86
41044;BME280;51680;49.806;18.774;2022-11-21T01:09:03;96612.84;;;4.04;78.14
41044;BME280;51680;49.806;18.774;2022-11-21T01:12:05;96601.00;;;4.00;78.12
41044;BME280;51680;49.806;18.774;2022-11-21T01:15:07;96600.16;;;4.00;77.73
41044;BME280;51680;49.806;18.774;2022-11-21T01:18:29;96596.25;;;3.93;77.83
41044;BME280;51680;49.806;18.774;2022-11-21T01:21:31;96598.91;;;3.91;78.19
41044;BME280;51680;49.806;18.774;2022-11-21T01:24:33;96608.47;;;3.89;77.96
41044;BME280;51680;49.806;18.774;2022-11-21T01:27:34;96595.56;;;3.89;78.32
41044;BME280;51680;49.806;18.774;2022-11-21T01:30:36;96599.06;;;3.88;78.33
41044;BME280;51680;49.806;18.774;2022-11-21T01:33:40;96609.41;;;3.88;78.61
41044;BME280;51680;49.806;18.774;2022-11-21T01:36:41;96599.75;;;3.75;79.14
41044;BME280;51680;49.806;18.774;2022-11-21T01:39:43;96595.34;;;3.77;78.38
41044;BME280;51680;49.806;18.774;2022-11-21T01:42:51;96603.16;;;3.75;78.91
41044;BME280;51680;49.806;18.774;2022-11-21T01:45:55;96590.19;;;3.77;78.67
41044;BME280;51680;49.806;18.774;2022-11-21T01:49:02;96584.19;;;3.76;79.01
41044;BME280;51680;49.806;18.774;2022-11-21T01:52:09;96576.53;;;3.75;79.16
41044;BME280;51680;49.806;18.774;2022-11-21T01:55:12;96590.41;;;3.72;79.38
41044;BME280;51680;49.806;18.774;2022-11-21T01:58:14;96589.34;;;3.76;79.19
41044;BME280;51680;49.806;18.774;2022-11-21T02:01:17;96584.34;;;3.73;79.80
41044;BME280;51680;49.806;18.774;2022-11-21T02:04:21;96574.84;;;3.74;79.54
41044;BME280;51680;49.806;18.774;2022-11-21T02:07:25;96567.34;;;3.69;80.30
41044;BME280;51680;49.806;18.774;2022-11-21T02:10:28;96565.50;;;3.54;83.26
41044;BME280;51680;49.806;18.774;2022-11-21T02:13:29;96562.78;;;3.23;83.02
41044;BME280;51680;49.806;18.774;2022-11-21T02:16:32;96564.94;;;2.97;83.50
41044;BME280;51680;49.806;18.774;2022-11-21T02:19:42;96565.19;;;2.92;83.82
41044;BME280;51680;49.806;18.774;2022-11-21T02:22:49;96543.47;;;2.79;84.70
41044;BME280;51680;49.806;18.774;2022-11-21T02:25:54;96548.28;;;2.68;85.42
41044;BME280;51680;49.806;18.774;2022-11-21T02:28:57;96548.63;;;2.79;84.21
41044;BME280;51680;49.806;18.774;2022-11-21T02:32:02;96552.78;;;2.82;84.29
41044;BME280;51680;49.806;18.774;2022-11-21T02:35:05;96541.94;;;2.75;84.75
41044;BME280;51680;49.806;18.774;2022-11-21T02:38:13;96542.38;;;2.66;85.79
41044;BME280;51680;49.806;18.774;2022-11-21T02:41:21;96552.31;;;2.74;85.25
41044;BME280;51680;49.806;18.774;2022-11-21T02:44:28;96557.66;;;2.88;84.79
41044;BME280;51680;49.806;18.774;2022-11-21T02:47:34;96550.56;;;3.10;83.71
41044;BME280;51680;49.806;18.774;2022-11-21T02:50:56;96550.50;;;3.28;83.15
41044;BME280;51680;49.806;18.774;2022-11-21T02:53:58;96546.34;;;3.43;82.66
41044;BME280;51680;49.806;18.774;2022-11-21T02:57:01;96553.59;;;3.52;81.98
41044;BME280;51680;49.806;18.774;2022-11-21T03:00:03;96551.81;;;3.54;82.07
41044;BME280;51680;49.806;18.774;2022-11-21T03:03:06;96546.19;;;3.63;81.66
41044;BME280;51680;49.806;18.774;2022-11-21T03:06:07;96550.03;;;3.71;81.17
41044;BME280;51680;49.806;18.774;2022-11-21T03:09:09;96546.84;;;3.83;81.17
41044;BME280;51680;49.806;18.774;2022-11-21T03:12:13;96553.50;;;3.87;80.61
41044;BME280;51680;49.806;18.774;2022-11-21T03:15:15;96549.78;;;3.93;80.45
41044;BME280;51680;49.806;18.774;2022-11-21T03:18:17;96533.81;;;4.02;80.35
41044;BME280;51680;49.806;18.774;2022-11-21T03:21:18;96525.81;;;4.06;79.58
41044;BME280;51680;49.806;18.774;2022-11-21T03:24:20;96523.16;;;4.08;79.53
41044;BME280;51680;49.806;18.774;2022-11-21T03:27:24;96519.84;;;4.06;79.89
41044;BME280;51680;49.806;18.774;2022-11-21T03:30:26;96518.06;;;4.06;79.56
41044;BME280;51680;49.806;18.774;2022-11-21T03:33:28;96511.31;;;4.04;79.58
41044;BME280;51680;49.806;18.774;2022-11-21T03:36:30;96508.28;;;4.13;79.44
41044;BME280;51680;49.806;18.774;2022-11-21T03:39:32;96501.03;;;4.19;78.87
41044;BME280;51680;49.806;18.774;2022-11-21T03:42:35;96492.81;;;4.28;78.42
41044;BME280;51680;49.806;18.774;2022-11-21T03:45:37;96490.22;;;4.28;78.35
41044;BME280;51680;49.806;18.774;2022-11-21T03:48:38;96477.72;;;4.36;78.01
41044;BME280;51680;49.806;18.774;2022-11-21T03:51:40;96475.88;;;4.38;77.64
41044;BME280;51680;49.806;18.774;2022-11-21T03:54:42;96475.03;;;4.38;77.83
41044;BME280;51680;49.806;18.774;2022-11-21T03:57:45;96473.56;;;4.34;77.49
41044;BME280;51680;49.806;18.774;2022-11-21T04:00:47;96472.38;;;4.39;77.72
41044;BME280;51680;49.806;18.774;2022-11-21T04:03:49;96459.38;;;4.41;77.42
41044;BME280;51680;49.806;18.774;2022-11-21T04:06:51;96453.22;;;4.43;76.90
41044;BME280;51680;49.806;18.774;2022-11-21T04:09:52;96451.91;;;4.36;76.79
41044;BME280;51680;49.806;18.774;2022-11-21T04:12:55;96450.41;;;4.32;77.42
41044;BME280;51680;49.806;18.774;2022-11-21T04:15:57;96456.91;;;4.24;77.37
41044;BME280;51680;49.806;18.774;2022-11-21T04:18:59;96457.22;;;4.18;77.52
41044;BME280;51680;49.806;18.774;2022-11-21T04:22:01;96454.69;;;4.16;77.75
41044;BME280;51680;49.806;18.774;2022-11-21T04:25:03;96456.56;;;4.14;78.08
41044;BME280;51680;49.806;18.774;2022-11-21T04:28:06;96449.88;;;4.10;78.04
41044;BME280;51680;49.806;18.774;2022-11-21T04:31:08;96453.22;;;4.12;78.07
41044;BME280;51680;49.806;18.774;2022-11-21T04:34:10;96441.72;;;4.02;78.38
41044;BME280;51680;49.806;18.774;2022-11-21T04:37:12;96443.88;;;3.94;78.81
41044;BME280;51680;49.806;18.774;2022-11-21T04:40:14;96448.34;;;3.75;79.69
41044;BME280;51680;49.806;18.774;2022-11-21T04:43:18;96442.25;;;3.76;79.47
41044;BME280;51680;49.806;18.774;2022-11-21T04:46:19;96449.22;;;3.59;80.07
41044;BME280;51680;49.806;18.774;2022-11-21T04:49:21;96447.78;;;3.53;80.58
41044;BME280;51680;49.806;18.774;2022-11-21T04:52:23;96444.72;;;3.62;80.15
41044;BME280;51680;49.806;18.774;2022-11-21T04:55:28;96440.63;;;3.58;80.35
41044;BME280;51680;49.806;18.774;2022-11-21T04:58:32;96431.78;;;3.47;80.94
41044;BME280;51680;49.806;18.774;2022-11-21T05:01:33;96423.31;;;3.45;81.32
41044;BME280;51680;49.806;18.774;2022-11-21T05:04:35;96423.31;;;3.45;81.42
41044;BME280;51680;49.806;18.774;2022-11-21T05:07:37;96419.28;;;3.39;81.66
41044;BME280;51680;49.806;18.774;2022-11-21T05:10:39;96415.81;;;3.40;81.54
41044;BME280;51680;49.806;18.774;2022-11-21T05:13:56;96408.44;;;3.33;82.27
41044;BME280;51680;49.806;18.774;2022-11-21T05:16:58;96413.59;;;3.33;82.29
41044;BME280;51680;49.806;18.774;2022-11-21T05:19:59;96413.19;;;3.25;82.46
41044;BME280;51680;49.806;18.774;2022-11-21T05:23:01;96400.97;;;3.28;82.39
41044;BME280;51680;49.806;18.774;2022-11-21T05:26:03;96394.13;;;3.27;82.94
41044;BME280;51680;49.806;18.774;2022-11-21T05:29:06;96393.97;;;3.30;82.81
41044;BME280;51680;49.806;18.774;2022-11-21T05:32:08;96396.53;;;3.30;83.18
41044;BME280;51680;49.806;18.774;2022-11-21T05:35:09;96396.66;;;3.29;83.63
41044;BME280;51680;49.806;18.774;2022-11-21T05:38:11;96402.47;;;3.32;84.24
41044;BME280;51680;49.806;18.774;2022-11-21T05:41:13;96405.50;;;3.40;83.61
41044;BME280;51680;49.806;18.774;2022-11-21T05:44:16;96394.69;;;3.49;83.41
41044;BME280;51680;49.806;18.774;2022-11-21T05:47:18;96395.28;;;3.54;82.76
41044;BME280;51680;49.806;18.774;2022-11-21T05:50:20;96394.91;;;3.62;82.89
41044;BME280;51680;49.806;18.774;2022-11-21T05:53:22;96404.22;;;3.64;82.87
41044;BME280;51680;49.806;18.774;2022-11-21T05:56:24;96400.47;;;3.70;82.81
41044;BME280;51680;49.806;18.774;2022-11-21T05:59:27;96400.53;;;3.53;83.77
41044;BME280;51680;49.806;18.774;2022-11-21T06:02:29;96403.34;;;3.48;84.14
41044;BME280;51680;49.806;18.774;2022-11-21T06:05:48;96406.50;;;3.53;83.62
41044;BME280;51680;49.806;18.774;2022-11-21T06:08:50;96397.84;;;3.54;83.68
41044;BME280;51680;49.806;18.774;2022-11-21T06:12:10;96402.03;;;3.57;83.35
41044;BME280;51680;49.806;18.774;2022-11-21T06:15:13;96401.94;;;3.58;83.70
41044;BME280;51680;49.806;18.774;2022-11-21T06:18:15;96390.41;;;3.65;83.55
41044;BME280;51680;49.806;18.774;2022-11-21T06:21:18;96387.50;;;3.71;83.15
41044;BME280;51680;49.806;18.774;2022-11-21T06:24:39;96387.91;;;3.64;84.07
41044;BME280;51680;49.806;18.774;2022-11-21T06:27:40;96392.72;;;3.70;83.80
41044;BME280;51680;49.806;18.774;2022-11-21T06:30:44;96380.09;;;3.81;83.38
41044;BME280;51680;49.806;18.774;2022-11-21T06:33:46;96389.34;;;4.16;82.83
41044;BME280;51680;49.806;18.774;2022-11-21T06:36:50;96373.88;;;5.04;79.65
41044;BME280;51680;49.806;18.774;2022-11-21T06:39:52;96381.59;;;4.90;78.89
41044;BME280;51680;49.806;18.774;2022-11-21T06:42:53;96372.72;;;4.80;79.52
41044;BME280;51680;49.806;18.774;2022-11-21T06:45:58;96365.97;;;4.78;79.61
41044;BME280;51680;49.806;18.774;2022-11-21T06:49:02;96376.69;;;4.56;80.80
41044;BME280;51680;49.806;18.774;2022-11-21T06:52:04;96372.06;;;4.47;81.33
41044;BME280;51680;49.806;18.774;2022-11-21T06:55:07;96378.34;;;4.57;80.81
41044;BME280;51680;49.806;18.774;2022-11-21T06:58:09;96376.34;;;4.62;80.66
41044;BME280;51680;49.806;18.774;2022-11-21T07:01:12;96381.91;;;4.70;80.68
41044;BME280;51680;49.806;18.774;2022-11-21T07:04:14;96380.50;;;4.65;80.59
41044;BME280;51680;49.806;18.774;2022-11-21T07:07:16;96383.69;;;4.84;80.54
41044;BME280;51680;49.806;18.774;2022-11-21T07:10:18;96384.34;;;4.87;80.37
41044;BME280;51680;49.806;18.774;2022-11-21T07:13:19;96374.41;;;4.95;79.77
41044;BME280;51680;49.806;18.774;2022-11-21T07:16:25;96382.44;;;4.91;80.52
41044;BME280;51680;49.806;18.774;2022-11-21T07:19:31;96375.13;;;4.97;80.08
41044;BME280;51680;49.806;18.774;2022-11-21T07:22:32;96367.78;;;5.05;79.62
41044;BME280;51680;49.806;18.774;2022-11-21T07:25:34;96374.34;;;5.11;79.95
41044;BME280;51680;49.806;18.774;2022-11-21T07:28:40;96385.25;;;5.16;79.60
41044;BME280;51680;49.806;18.774;2022-11-21T07:31:44;96382.66;;;5.16;79.69
41044;BME280;51680;49.806;18.774;2022-11-21T07:34:45;96378.22;;;5.18;79.85
41044;BME280;51680;49.806;18.774;2022-11-21T07:37:47;96378.31;;;5.16;79.74
41044;BME280;51680;49.806;18.774;2022-11-21T07:40:49;96376.28;;;5.35;79.60
41044;BME280;51680;49.806;18.774;2022-11-21T07:43:51;96377.41;;;5.45;79.49
41044;BME280;51680;49.806;18.774;2022-11-21T07:46:56;96370.50;;;5.46;79.75
41044;BME280;51680;49.806;18.774;2022-11-21T07:49:58;96371.34;;;5.60;79.25
41044;BME280;51680;49.806;18.774;2022-11-21T07:53:00;96370.09;;;5.66;79.09
41044;BME280;51680;49.806;18.774;2022-11-21T07:56:02;96372.97;;;5.75;78.83
41044;BME280;51680;49.806;18.774;2022-11-21T07:59:04;96369.47;;;5.76;79.09
41044;BME280;51680;49.806;18.774;2022-11-21T08:02:15;96364.88;;;5.81;79.00
41044;BME280;51680;49.806;18.774;2022-11-21T08:05:18;96358.81;;;5.95;79.06
41044;BME280;51680;49.806;18.774;2022-11-21T08:08:20;96361.28;;;6.10;78.91
41044;BME280;51680;49.806;18.774;2022-11-21T08:11:22;96363.09;;;6.22;78.04
41044;BME280;51680;49.806;18.774;2022-11-21T08:14:25;96366.03;;;6.30;78.77
41044;BME280;51680;49.806;18.774;2022-11-21T08:17:28;96356.13;;;6.37;78.18
41044;BME280;51680;49.806;18.774;2022-11-21T08:20:30;96366.00;;;6.44;77.92
41044;BME280;51680;49.806;18.774;2022-11-21T08:23:32;96365.59;;;6.50;77.82
41044;BME280;51680;49.806;18.774;2022-11-21T08:26:34;96366.66;;;6.60;77.58
41044;BME280;51680;49.806;18.774;2022-11-21T08:29:35;96373.84;;;6.69;77.18
41044;BME280;51680;49.806;18.774;2022-11-21T08:32:39;96379.56;;;6.74;77.23
41044;BME280;51680;49.806;18.774;2022-11-21T08:35:40;96376.78;;;6.77;76.55
41044;BME280;51680;49.806;18.774;2022-11-21T08:38:42;96379.91;;;6.82;76.54
41044;BME280;51680;49.806;18.774;2022-11-21T08:41:44;96377.94;;;6.98;76.60
41044;BME280;51680;49.806;18.774;2022-11-21T08:45:04;96366.44;;;7.02;76.61
41044;BME280;51680;49.806;18.774;2022-11-21T08:48:11;96367.28;;;7.03;75.79
41044;BME280;51680;49.806;18.774;2022-11-21T08:51:13;96366.06;;;7.33;75.69
41044;BME280;51680;49.806;18.774;2022-11-21T08:54:14;96360.13;;;7.81;74.54
41044;BME280;51680;49.806;18.774;2022-11-21T08:57:16;96359.34;;;8.04;74.18
41044;BME280;51680;49.806;18.774;2022-11-21T09:00:18;96365.16;;;8.08;73.80
41044;BME280;51680;49.806;18.774;2022-11-21T09:03:21;96361.41;;;7.99;73.44
41044;BME280;51680;49.806;18.774;2022-11-21T09:06:23;96367.47;;;7.87;73.61
41044;BME280;51680;49.806;18.774;2022-11-21T09:09:25;96360.63;;;7.86;74.04
41044;BME280;51680;49.806;18.774;2022-11-21T09:12:26;96356.47;;;7.84;74.11
41044;BME280;51680;49.806;18.774;2022-11-21T09:15:28;96354.47;;;7.87;74.02
41044;BME280;51680;49.806;18.774;2022-11-21T09:19:03;96348.56;;;7.85;73.88
41044;BME280;51680;49.806;18.774;2022-11-21T09:22:05;96350.25;;;7.74;73.82
41044;BME280;51680;49.806;18.774;2022-11-21T09:25:07;96357.13;;;7.62;73.82
41044;BME280;51680;49.806;18.774;2022-11-21T09:28:11;96350.28;;;7.61;74.33
41044;BME280;51680;49.806;18.774;2022-11-21T09:31:13;96350.69;;;7.55;74.24
41044;BME280;51680;49.806;18.774;2022-11-21T09:34:17;96352.13;;;7.59;74.75
41044;BME280;51680;49.806;18.774;2022-11-21T09:37:19;96343.19;;;7.63;74.58
41044;BME280;51680;49.806;18.774;2022-11-21T09:40:21;96341.13;;;7.68;74.57
41044;BME280;51680;49.806;18.774;2022-11-21T09:43:37;96343.38;;;7.73;73.98
41044;BME280;51680;49.806;18.774;2022-11-21T09:46:44;96338.84;;;7.64;73.69
41044;BME280;51680;49.806;18.774;2022-11-21T09:49:52;96334.97;;;7.69;74.04
41044;BME280;51680;49.806;18.774;2022-11-21T09:53:00;96327.19;;;7.69;74.06
41044;BME280;51680;49.806;18.774;2022-11-21T09:56:06;96333.00;;;7.60;74.32
41044;BME280;51680;49.806;18.774;2022-11-21T09:59:22;96346.94;;;7.59;74.27
41044;BME280;51680;49.806;18.774;2022-11-21T10:02:27;96337.78;;;7.54;74.62
41044;BME280;51680;49.806;18.774;2022-11-21T10:05:34;96341.66;;;7.61;74.27
41044;BME280;51680;49.806;18.774;2022-11-21T10:08:42;96332.50;;;7.55;74.35
41044;BME280;51680;49.806;18.774;2022-11-21T10:11:51;96327.00;;;7.60;74.67
41044;BME280;51680;49.806;18.774;2022-11-21T10:15:25;96324.38;;;7.72;73.93
41044;BME280;51680;49.806;18.774;2022-11-21T10:18:55;96323.78;;;7.69;73.63
41044;BME280;51680;49.806;18.774;2022-11-21T10:22:18;96323.50;;;7.48;73.98
41044;BME280;51680;49.806;18.774;2022-11-21T10:25:24;96324.63;;;7.57;73.80
41044;BME280;51680;49.806;18.774;2022-11-21T10:28:34;96317.34;;;7.62;74.34
41044;BME280;51680;49.806;18.774;2022-11-21T10:31:40;96315.56;;;7.62;73.90
41044;BME280;51680;49.806;18.774;2022-11-21T10:34:44;96315.34;;;7.65;73.80
41044;BME280;51680;49.806;18.774;2022-11-21T10:37:50;96320.00;;;7.73;73.33
41044;BME280;51680;49.806;18.774;2022-11-21T10:40:59;96315.28;;;7.54;73.23
41044;BME280;51680;49.806;18.774;2022-11-21T10:44:08;96310.16;;;7.65;73.92
41044;BME280;51680;49.806;18.774;2022-11-21T10:47:31;96302.66;;;7.73;73.52
41044;BME280;51680;49.806;18.774;2022-11-21T10:50:40;96304.06;;;7.90;73.17
41044;BME280;51680;49.806;18.774;2022-11-21T10:54:02;96291.94;;;8.14;72.46
41044;BME280;51680;49.806;18.774;2022-11-21T10:57:22;96305.19;;;8.34;72.59
41044;BME280;51680;49.806;18.774;2022-11-21T11:00:27;96307.66;;;8.59;71.88
41044;BME280;51680;49.806;18.774;2022-11-21T11:03:30;96292.53;;;8.64;71.54
41044;BME280;51680;49.806;18.774;2022-11-21T11:06:32;96306.78;;;8.82;71.26
41044;BME280;51680;49.806;18.774;2022-11-21T11:09:36;96300.28;;;8.88;70.58
41044;BME280;51680;49.806;18.774;2022-11-21T11:12:39;96294.66;;;8.94;70.59
41044;BME280;51680;49.806;18.774;2022-11-21T11:16:02;96296.78;;;9.11;70.41
41044;BME280;51680;49.806;18.774;2022-11-21T11:19:14;96302.63;;;9.25;70.04
41044;BME280;51680;49.806;18.774;2022-11-21T11:22:26;96295.28;;;9.19;67.61
41044;BME280;51680;49.806;18.774;2022-11-21T11:25:33;96302.84;;;9.33;68.69
41044;BME280;51680;49.806;18.774;2022-11-21T11:28:36;96304.41;;;9.47;69.18
41044;BME280;51680;49.806;18.774;2022-11-21T11:31:42;96300.59;;;9.40;68.35
41044;BME280;51680;49.806;18.774;2022-11-21T11:34:49;96300.88;;;9.70;68.35
41044;BME280;51680;49.806;18.774;2022-11-21T11:37:58;96303.91;;;9.86;68.07
41044;BME280;51680;49.806;18.774;2022-11-21T11:41:11;96299.19;;;9.80;66.33
41044;BME280;51680;49.806;18.774;2022-11-21T11:44:18;96304.28;;;9.70;66.80
41044;BME280;51680;49.806;18.774;2022-11-21T11:48:02;96300.88;;;9.70;67.70
41044;BME280;51680;49.806;18.774;2022-11-21T11:51:16;96302.38;;;9.61;66.83
41044;BME280;51680;49.806;18.774;2022-11-21T11:54:23;96309.50;;;9.59;68.11
41044;BME280;51680;49.806;18.774;2022-11-21T11:57:30;96301.31;;;9.64;66.88
41044;BME280;51680;49.806;18.774;2022-11-21T12:00:39;96305.22;;;9.47;66.75
41044;BME280;51680;49.806;18.774;2022-11-21T12:03:47;96300.72;;;9.27;67.97
41044;BME280;51680;49.806;18.774;2022-11-21T12:06:53;96299.06;;;9.15;68.14
41044;BME280;51680;49.806;18.774;2022-11-21T12:10:02;96299.75;;;9.06;67.72
41044;BME280;51680;49.806;18.774;2022-11-21T12:13:10;96299.47;;;8.87;68.45
41044;BME280;51680;49.806;18.774;2022-11-21T12:16:16;96297.75;;;8.75;68.66
41044;BME280;51680;49.806;18.774;2022-11-21T12:19:18;96301.66;;;8.70;69.14
41044;BME280;51680;49.806;18.774;2022-11-21T12:22:19;96288.56;;;8.71;69.60
41044;BME280;51680;49.806;18.774;2022-11-21T12:25:25;96292.25;;;8.56;69.14
41044;BME280;51680;49.806;18.774;2022-11-21T12:28:37;96291.53;;;8.43;69.36
41044;BME280;51680;49.806;18.774;2022-11-21T12:31:48;96288.19;;;8.41;69.79
41044;BME280;51680;49.806;18.774;2022-11-21T12:35:04;96288.28;;;8.40;69.93
41044;BME280;51680;49.806;18.774;2022-11-21T12:38:18;96275.06;;;8.19;70.07
41044;BME280;51680;49.806;18.774;2022-11-21T12:41:30;96281.72;;;8.23;70.19
41044;BME280;51680;49.806;18.774;2022-11-21T12:45:02;96281.53;;;8.14;70.14
41044;BME280;51680;49.806;18.774;2022-11-21T12:48:19;96284.75;;;8.17;70.55
41044;BME280;51680;49.806;18.774;2022-11-21T12:51:50;96286.72;;;8.26;70.19
41044;BME280;51680;49.806;18.774;2022-11-21T12:55:30;96285.94;;;8.37;69.75
41044;BME280;51680;49.806;18.774;2022-11-21T12:58:35;96281.34;;;8.40;70.18
41044;BME280;51680;49.806;18.774;2022-11-21T13:01:48;96280.00;;;8.35;69.83
41044;BME280;51680;49.806;18.774;2022-11-21T13:04:53;96278.13;;;8.37;70.24
41044;BME280;51680;49.806;18.774;2022-11-21T13:08:00;96278.91;;;8.26;70.42
41044;BME280;51680;49.806;18.774;2022-11-21T13:11:09;96278.22;;;8.24;70.41
41044;BME280;51680;49.806;18.774;2022-11-21T13:14:36;96276.13;;;8.17;70.24
41044;BME280;51680;49.806;18.774;2022-11-21T13:17:47;96279.66;;;8.16;71.16
41044;BME280;51680;49.806;18.774;2022-11-21T13:20:51;96278.09;;;8.13;70.94
41044;BME280;51680;49.806;18.774;2022-11-21T13:23:53;96285.69;;;8.16;70.68
41044;BME280;51680;49.806;18.774;2022-11-21T13:26:54;96279.28;;;8.09;71.12
41044;BME280;51680;49.806;18.774;2022-11-21T13:30:16;96283.75;;;8.07;70.50
41044;BME280;51680;49.806;18.774;2022-11-21T13:36:51;96278.19;;;7.88;71.23
41044;BME280;51680;49.806;18.774;2022-11-21T13:40:34;96294.38;;;8.04;71.29
41044;BME280;51680;49.806;18.774;2022-11-21T13:44:35;96290.38;;;8.11;70.78
41044;BME280;51680;49.806;18.774;2022-11-21T13:47:58;96283.19;;;8.15;71.16
41044;BME280;51680;49.806;18.774;2022-11-21T13:51:31;96286.13;;;8.10;71.15
41044;BME280;51680;49.806;18.774;2022-11-21T13:55:18;96288.63;;;8.12;70.51
41044;BME280;51680;49.806;18.774;2022-11-21T13:58:42;96296.84;;;8.06;71.59
41044;BME280;51680;49.806;18.774;2022-11-21T14:02:06;96288.00;;;8.08;71.29
41044;BME280;51680;49.806;18.774;2022-11-21T14:05:24;96293.31;;;8.07;71.72
41044;BME280;51680;49.806;18.774;2022-11-21T14:08:33;96298.84;;;8.02;72.05
41044;BME280;51680;49.806;18.774;2022-11-21T14:11:39;96306.78;;;7.88;72.05
41044;BME280;51680;49.806;18.774;2022-11-21T14:14:50;96309.16;;;7.91;72.64
41044;BME280;51680;49.806;18.774;2022-11-21T14:17:55;96310.22;;;7.89;72.48
41044;BME280;51680;49.806;18.774;2022-11-21T14:20:59;96310.44;;;7.73;72.97
41044;BME280;51680;49.806;18.774;2022-11-21T14:24:14;96314.16;;;7.82;72.62
41044;BME280;51680;49.806;18.774;2022-11-21T14:27:25;96317.81;;;7.79;73.09
41044;BME280;51680;49.806;18.774;2022-11-21T14:30:30;96314.50;;;7.77;72.67
41044;BME280;51680;49.806;18.774;2022-11-21T14:33:34;96313.03;;;7.86;72.64
41044;BME280;51680;49.806;18.774;2022-11-21T14:36:37;96323.00;;;7.79;72.68
41044;BME280;51680;49.806;18.774;2022-11-21T14:39:40;96330.09;;;7.77;72.77
41044;BME280;51680;49.806;18.774;2022-11-21T14:42:44;96333.41;;;7.79;73.01
41044;BME280;51680;49.806;18.774;2022-11-21T14:45:47;96329.16;;;7.78;72.77
41044;BME280;51680;49.806;18.774;2022-11-21T14:48:49;96326.53;;;7.78;73.18
41044;BME280;51680;49.806;18.774;2022-11-21T14:51:57;96322.19;;;7.79;72.90
41044;BME280;51680;49.806;18.774;2022-11-21T14:55:00;96319.50;;;7.80;72.69
41044;BME280;51680;49.806;18.774;2022-11-21T14:58:04;96312.84;;;7.76;73.12
41044;BME280;51680;49.806;18.774;2022-11-21T15:01:18;96316.69;;;7.71;73.11
41044;BME280;51680;49.806;18.774;2022-11-21T15:04:26;96313.16;;;7.72;73.31
41044;BME280;51680;49.806;18.774;2022-11-21T15:07:34;96316.91;;;7.80;73.03
41044;BME280;51680;49.806;18.774;2022-11-21T15:10:36;96317.00;;;7.79;73.08
41044;BME280;51680;49.806;18.774;2022-11-21T15:13:41;96307.84;;;7.73;73.15
41044;BME280;51680;49.806;18.774;2022-11-21T15:16:44;96314.94;;;7.71;73.46
41044;BME280;51680;49.806;18.774;2022-11-21T15:20:02;96305.69;;;7.67;73.46
41044;BME280;51680;49.806;18.774;2022-11-21T15:23:04;96304.84;;;7.67;73.00
41044;BME280;51680;49.806;18.774;2022-11-21T15:26:25;96306.75;;;7.65;73.47
41044;BME280;51680;49.806;18.774;2022-11-21T15:29:30;96314.22;;;7.57;73.65
41044;BME280;51680;49.806;18.774;2022-11-21T15:32:32;96313.19;;;7.59;73.82
41044;BME280;51680;49.806;18.774;2022-11-21T15:35:48;96320.25;;;7.57;73.36
41044;BME280;51680;49.806;18.774;2022-11-21T15:38:52;96317.66;;;7.57;73.51
41044;BME280;51680;49.806;18.774;2022-11-21T15:42:26;96315.97;;;7.56;73.53
41044;BME280;51680;49.806;18.774;2022-11-21T15:45:29;96313.09;;;7.48;73.96
41044;BME280;51680;49.806;18.774;2022-11-21T15:48:31;96319.53;;;7.43;74.01
41044;BME280;51680;49.806;18.774;2022-11-21T15:51:35;96319.53;;;7.43;73.78
41044;BME280;51680;49.806;18.774;2022-11-21T15:54:36;96312.59;;;7.43;73.67
41044;BME280;51680;49.806;18.774;2022-11-21T15:57:38;96319.94;;;7.49;73.44
41044;BME280;51680;49.806;18.774;2022-11-21T16:00:41;96311.22;;;7.50;73.59
41044;BME280;51680;49.806;18.774;2022-11-21T16:03:43;96316.09;;;7.55;73.85
41044;BME280;51680;49.806;18.774;2022-11-21T16:06:45;96315.16;;;7.56;73.42
41044;BME280;51680;49.806;18.774;2022-11-21T16:10:07;96312.66;;;7.54;73.97
41044;BME280;51680;49.806;18.774;2022-11-21T16:13:10;96306.88;;;7.51;73.97
41044;BME280;51680;49.806;18.774;2022-11-21T16:16:14;96306.16;;;7.36;74.14
41044;BME280;51680;49.806;18.774;2022-11-21T16:19:15;96309.59;;;7.24;74.80
41044;BME280;51680;49.806;18.774;2022-11-21T16:22:17;96304.69;;;7.32;74.63
41044;BME280;51680;49.806;18.774;2022-11-21T16:25:19;96306.47;;;7.44;74.06
41044;BME280;51680;49.806;18.774;2022-11-21T16:28:21;96306.47;;;7.44;73.98
41044;BME280;51680;49.806;18.774;2022-11-21T16:31:25;96304.38;;;7.49;73.93